sensor_id;sensor_type;location;lat;lon;timestamp;P1;durP1;ratioP1;P2;durP2;ratioP2
19262;SDS011;9765;52.354;20.884;2023-02-13T07:14:14;16.83;;;7.83;;
19262;SDS011;9765;52.354;20.884;2023-02-13T07:16:43;15.00;;;7.37;;
19262;SDS011;9765;52.354;20.884;2023-02-13T07:19:13;15.03;;;6.83;;
19262;SDS011;9765;52.354;20.884;2023-02-13T07:21:51;16.60;;;6.73;;
19262;SDS011;9765;52.354;20.884;2023-02-13T07:24:20;14.77;;;7.23;;
19262;SDS011;9765;52.354;20.884;2023-02-13T07:27:04;16.07;;;7.37;;
19262;SDS011;9765;52.354;20.884;2023-02-13T07:29:34;13.53;;;7.13;;
19262;SDS011;9765;52.354;20.884;2023-02-13T08:05:58;16.80;;;7.20;;
19262;SDS011;9765;52.354;20.884;2023-02-13T08:08:28;16.97;;;7.07;;
19262;SDS011;9765;52.354;20.884;2023-02-13T08:11:01;17.80;;;8.03;;
19262;SDS011;9765;52.354;20.884;2023-02-13T08:13:48;19.60;;;6.97;;
19262;SDS011;9765;52.354;20.884;2023-02-13T08:16:15;18.57;;;7.33;;
19262;SDS011;9765;52.354;20.884;2023-02-13T08:18:44;16.53;;;7.03;;
19262;SDS011;9765;52.354;20.884;2023-02-13T08:21:11;15.63;;;7.47;;
19262;SDS011;9765;52.354;20.884;2023-02-13T08:23:39;16.03;;;7.60;;
19262;SDS011;9765;52.354;20.884;2023-02-13T08:26:08;16.40;;;7.73;;
19262;SDS011;9765;52.354;20.884;2023-02-13T08:28:37;12.77;;;7.13;;
19262;SDS011;9765;52.354;20.884;2023-02-13T08:31:08;16.90;;;7.43;;
19262;SDS011;9765;52.354;20.884;2023-02-13T08:33:36;21.93;;;8.30;;
19262;SDS011;9765;52.354;20.884;2023-02-13T08:36:05;20.50;;;8.53;;
19262;SDS011;9765;52.354;20.884;2023-02-13T08:38:36;17.27;;;8.07;;
19262;SDS011;9765;52.354;20.884;2023-02-13T08:41:03;18.03;;;7.47;;
19262;SDS011;9765;52.354;20.884;2023-02-13T08:43:30;13.67;;;7.03;;
19262;SDS011;9765;52.354;20.884;2023-02-13T08:45:57;14.63;;;8.03;;
19262;SDS011;9765;52.354;20.884;2023-02-13T08:48:24;13.03;;;6.87;;
19262;SDS011;9765;52.354;20.884;2023-02-13T08:50:52;19.47;;;7.07;;
19262;SDS011;9765;52.354;20.884;2023-02-13T08:53:20;14.37;;;7.40;;
19262;SDS011;9765;52.354;20.884;2023-02-13T08:55:53;15.67;;;6.70;;
19262;SDS011;9765;52.354;20.884;2023-02-13T08:58:20;13.40;;;6.40;;
19262;SDS011;9765;52.354;20.884;2023-02-13T09:00:48;11.90;;;7.03;;
19262;SDS011;9765;52.354;20.884;2023-02-13T09:03:15;13.20;;;7.10;;
19262;SDS011;9765;52.354;20.884;2023-02-13T09:05:43;16.70;;;6.90;;
19262;SDS011;9765;52.354;20.884;2023-02-13T09:08:10;12.87;;;7.17;;
19262;SDS011;9765;52.354;20.884;2023-02-13T09:10:39;13.80;;;6.93;;
19262;SDS011;9765;52.354;20.884;2023-02-13T09:13:09;12.97;;;6.47;;
19262;SDS011;9765;52.354;20.884;2023-02-13T09:15:36;16.53;;;6.37;;
19262;SDS011;9765;52.354;20.884;2023-02-13T09:18:04;12.03;;;6.40;;
19262;SDS011;9765;52.354;20.884;2023-02-13T09:20:32;16.87;;;6.50;;
19262;SDS011;9765;52.354;20.884;2023-02-13T09:23:01;14.37;;;7.00;;
19262;SDS011;9765;52.354;20.884;2023-02-13T09:25:29;15.73;;;6.20;;
19262;SDS011;9765;52.354;20.884;2023-02-13T09:27:59;11.67;;;6.30;;
19262;SDS011;9765;52.354;20.884;2023-02-13T09:30:28;16.10;;;6.13;;
19262;SDS011;9765;52.354;20.884;2023-02-13T09:33:16;13.10;;;6.33;;
19262;SDS011;9765;52.354;20.884;2023-02-13T09:35:46;15.77;;;6.63;;
19262;SDS011;9765;52.354;20.884;2023-02-13T09:38:15;16.80;;;6.20;;
19262;SDS011;9765;52.354;20.884;2023-02-13T09:40:48;16.97;;;6.33;;
19262;SDS011;9765;52.354;20.884;2023-02-13T09:43:36;16.97;;;6.20;;
19262;SDS011;9765;52.354;20.884;2023-02-13T09:46:12;13.30;;;6.57;;
19262;SDS011;9765;52.354;20.884;2023-02-13T09:48:46;16.90;;;6.97;;
19262;SDS011;9765;52.354;20.884;2023-02-13T09:51:20;13.33;;;6.10;;
19262;SDS011;9765;52.354;20.884;2023-02-13T09:53:52;17.10;;;6.93;;
19262;SDS011;9765;52.354;20.884;2023-02-13T09:56:26;18.27;;;6.67;;
19262;SDS011;9765;52.354;20.884;2023-02-13T09:59:07;19.00;;;7.13;;
19262;SDS011;9765;52.354;20.884;2023-02-13T10:01:44;14.70;;;7.00;;
19262;SDS011;9765;52.354;20.884;2023-02-13T10:04:25;13.83;;;6.70;;
19262;SDS011;9765;52.354;20.884;2023-02-13T10:07:04;15.00;;;6.40;;
19262;SDS011;9765;52.354;20.884;2023-02-13T10:09:43;13.27;;;6.20;;
19262;SDS011;9765;52.354;20.884;2023-02-13T10:12:42;12.33;;;6.47;;
19262;SDS011;9765;52.354;20.884;2023-02-13T10:15:27;12.27;;;5.90;;
19262;SDS011;9765;52.354;20.884;2023-02-13T10:18:00;11.83;;;6.50;;
19262;SDS011;9765;52.354;20.884;2023-02-13T10:20:32;16.27;;;6.97;;
19262;SDS011;9765;52.354;20.884;2023-02-13T10:23:09;16.07;;;6.60;;
19262;SDS011;9765;52.354;20.884;2023-02-13T10:25:45;19.23;;;6.93;;
19262;SDS011;9765;52.354;20.884;2023-02-13T10:28:19;13.17;;;7.20;;
19262;SDS011;9765;52.354;20.884;2023-02-13T10:30:57;16.10;;;7.20;;
19262;SDS011;9765;52.354;20.884;2023-02-13T10:33:29;14.60;;;7.27;;
19262;SDS011;9765;52.354;20.884;2023-02-13T10:36:00;13.93;;;7.07;;
19262;SDS011;9765;52.354;20.884;2023-02-13T10:38:31;15.63;;;7.20;;
19262;SDS011;9765;52.354;20.884;2023-02-13T10:41:04;13.63;;;7.00;;
19262;SDS011;9765;52.354;20.884;2023-02-13T10:43:44;18.13;;;7.70;;
19262;SDS011;9765;52.354;20.884;2023-02-13T10:46:20;16.70;;;7.50;;
19262;SDS011;9765;52.354;20.884;2023-02-13T10:49:03;18.13;;;9.70;;
19262;SDS011;9765;52.354;20.884;2023-02-13T10:51:41;20.73;;;10.30;;
19262;SDS011;9765;52.354;20.884;2023-02-13T10:54:22;17.90;;;9.00;;
19262;SDS011;9765;52.354;20.884;2023-02-13T10:56:59;13.37;;;7.43;;
19262;SDS011;9765;52.354;20.884;2023-02-13T10:59:45;12.97;;;7.10;;
19262;SDS011;9765;52.354;20.884;2023-02-13T11:02:24;14.27;;;7.53;;
19262;SDS011;9765;52.354;20.884;2023-02-13T11:04:56;14.83;;;7.60;;
19262;SDS011;9765;52.354;20.884;2023-02-13T11:07:35;16.53;;;7.80;;
19262;SDS011;9765;52.354;20.884;2023-02-13T11:10:29;13.13;;;7.60;;
19262;SDS011;9765;52.354;20.884;2023-02-13T11:13:28;18.30;;;9.10;;
19262;SDS011;9765;52.354;20.884;2023-02-13T11:16:07;21.60;;;8.40;;
19262;SDS011;9765;52.354;20.884;2023-02-13T11:18:37;17.80;;;8.73;;
19262;SDS011;9765;52.354;20.884;2023-02-13T11:21:07;20.53;;;9.40;;
19262;SDS011;9765;52.354;20.884;2023-02-13T11:23:39;19.20;;;9.90;;
19262;SDS011;9765;52.354;20.884;2023-02-13T11:26:21;18.90;;;8.60;;
19262;SDS011;9765;52.354;20.884;2023-02-13T11:28:58;18.13;;;8.30;;
19262;SDS011;9765;52.354;20.884;2023-02-13T11:31:27;18.00;;;8.47;;
19262;SDS011;9765;52.354;20.884;2023-02-13T11:36:50;15.43;;;8.40;;
19262;SDS011;9765;52.354;20.884;2023-02-13T11:39:32;21.47;;;9.13;;
19262;SDS011;9765;52.354;20.884;2023-02-13T11:41:59;19.30;;;9.50;;
19262;SDS011;9765;52.354;20.884;2023-02-13T11:44:27;13.63;;;7.67;;
19262;SDS011;9765;52.354;20.884;2023-02-13T11:46:56;15.60;;;8.00;;
19262;SDS011;9765;52.354;20.884;2023-02-13T11:49:26;15.57;;;7.87;;
19262;SDS011;9765;52.354;20.884;2023-02-13T11:51:57;15.90;;;8.80;;
19262;SDS011;9765;52.354;20.884;2023-02-13T11:54:28;16.70;;;8.43;;
19262;SDS011;9765;52.354;20.884;2023-02-13T11:56:58;18.20;;;8.70;;
19262;SDS011;9765;52.354;20.884;2023-02-13T11:59:31;16.80;;;8.07;;
19262;SDS011;9765;52.354;20.884;2023-02-13T12:02:12;14.80;;;8.27;;
19262;SDS011;9765;52.354;20.884;2023-02-13T12:04:46;14.90;;;7.93;;
19262;SDS011;9765;52.354;20.884;2023-02-13T12:07:23;16.90;;;8.07;;
19262;SDS011;9765;52.354;20.884;2023-02-13T12:10:07;17.10;;;7.70;;
19262;SDS011;9765;52.354;20.884;2023-02-13T12:12:43;14.23;;;6.90;;
19262;SDS011;9765;52.354;20.884;2023-02-13T12:15:18;13.50;;;7.10;;
19262;SDS011;9765;52.354;20.884;2023-02-13T12:17:49;14.73;;;6.87;;
19262;SDS011;9765;52.354;20.884;2023-02-13T12:20:32;13.00;;;7.07;;
19262;SDS011;9765;52.354;20.884;2023-02-13T12:23:13;14.83;;;7.20;;
19262;SDS011;9765;52.354;20.884;2023-02-13T12:26:00;15.63;;;7.53;;
19262;SDS011;9765;52.354;20.884;2023-02-13T12:28:51;17.03;;;7.10;;
19262;SDS011;9765;52.354;20.884;2023-02-13T12:31:34;16.50;;;7.60;;
19262;SDS011;9765;52.354;20.884;2023-02-13T12:37:35;16.53;;;7.27;;
19262;SDS011;9765;52.354;20.884;2023-02-13T12:40:30;17.70;;;7.60;;
19262;SDS011;9765;52.354;20.884;2023-02-13T12:43:31;15.57;;;7.57;;
19262;SDS011;9765;52.354;20.884;2023-02-13T12:46:21;16.07;;;6.80;;
19262;SDS011;9765;52.354;20.884;2023-02-13T12:49:05;10.10;;;6.03;;
19262;SDS011;9765;52.354;20.884;2023-02-13T12:51:55;12.87;;;6.03;;
19262;SDS011;9765;52.354;20.884;2023-02-13T12:54:57;14.40;;;6.47;;
19262;SDS011;9765;52.354;20.884;2023-02-13T12:57:55;13.23;;;6.27;;
19262;SDS011;9765;52.354;20.884;2023-02-13T13:00:44;12.77;;;5.70;;
19262;SDS011;9765;52.354;20.884;2023-02-13T13:03:44;13.67;;;6.00;;
19262;SDS011;9765;52.354;20.884;2023-02-13T13:06:34;15.37;;;6.33;;
19262;SDS011;9765;52.354;20.884;2023-02-13T13:12:53;13.73;;;6.20;;
19262;SDS011;9765;52.354;20.884;2023-02-13T13:15:58;12.97;;;5.13;;
19262;SDS011;9765;52.354;20.884;2023-02-13T13:18:45;11.63;;;4.60;;
19262;SDS011;9765;52.354;20.884;2023-02-13T13:21:42;11.20;;;4.30;;
19262;SDS011;9765;52.354;20.884;2023-02-13T13:24:27;10.40;;;4.83;;
19262;SDS011;9765;52.354;20.884;2023-02-13T13:27:18;10.50;;;4.30;;
19262;SDS011;9765;52.354;20.884;2023-02-13T13:30:11;12.37;;;4.10;;
19262;SDS011;9765;52.354;20.884;2023-02-13T13:33:02;11.03;;;5.03;;
19262;SDS011;9765;52.354;20.884;2023-02-13T13:35:54;10.70;;;4.63;;
19262;SDS011;9765;52.354;20.884;2023-02-13T13:41:53;13.47;;;3.80;;
19262;SDS011;9765;52.354;20.884;2023-02-13T13:44:54;9.57;;;4.10;;
19262;SDS011;9765;52.354;20.884;2023-02-13T13:51:29;14.80;;;4.10;;
19262;SDS011;9765;52.354;20.884;2023-02-13T13:57:29;8.90;;;3.63;;
19262;SDS011;9765;52.354;20.884;2023-02-13T14:00:35;10.23;;;3.90;;
19262;SDS011;9765;52.354;20.884;2023-02-13T14:03:25;9.20;;;4.70;;
19262;SDS011;9765;52.354;20.884;2023-02-13T14:06:08;9.20;;;4.33;;
19262;SDS011;9765;52.354;20.884;2023-02-13T14:08:56;14.27;;;4.77;;
19262;SDS011;9765;52.354;20.884;2023-02-13T14:11:34;12.33;;;4.77;;
19262;SDS011;9765;52.354;20.884;2023-02-13T14:17:46;10.07;;;4.93;;
19262;SDS011;9765;52.354;20.884;2023-02-13T14:20:32;9.93;;;5.03;;
19262;SDS011;9765;52.354;20.884;2023-02-13T14:23:14;11.50;;;5.17;;
19262;SDS011;9765;52.354;20.884;2023-02-13T14:25:49;11.37;;;5.33;;
19262;SDS011;9765;52.354;20.884;2023-02-13T14:28:18;11.13;;;4.70;;
19262;SDS011;9765;52.354;20.884;2023-02-13T14:30:50;10.70;;;4.93;;
19262;SDS011;9765;52.354;20.884;2023-02-13T14:33:40;9.67;;;4.73;;
19262;SDS011;9765;52.354;20.884;2023-02-13T14:36:16;13.13;;;5.00;;
19262;SDS011;9765;52.354;20.884;2023-02-13T14:38:53;11.87;;;5.07;;
19262;SDS011;9765;52.354;20.884;2023-02-13T14:44:17;11.87;;;4.97;;
19262;SDS011;9765;52.354;20.884;2023-02-13T14:46:47;13.83;;;5.23;;
19262;SDS011;9765;52.354;20.884;2023-02-13T14:49:18;13.77;;;5.60;;
19262;SDS011;9765;52.354;20.884;2023-02-13T14:51:48;11.90;;;4.70;;
19262;SDS011;9765;52.354;20.884;2023-02-13T14:54:18;11.67;;;5.07;;
19262;SDS011;9765;52.354;20.884;2023-02-13T14:56:52;12.87;;;5.60;;
19262;SDS011;9765;52.354;20.884;2023-02-13T14:59:28;14.60;;;5.50;;
19262;SDS011;9765;52.354;20.884;2023-02-13T15:05:03;14.93;;;5.83;;
19262;SDS011;9765;52.354;20.884;2023-02-13T15:07:35;16.53;;;5.70;;
19262;SDS011;9765;52.354;20.884;2023-02-13T15:10:14;11.93;;;5.40;;
19262;SDS011;9765;52.354;20.884;2023-02-13T15:16:11;12.43;;;5.93;;
19262;SDS011;9765;52.354;20.884;2023-02-13T15:18:47;17.47;;;5.80;;
19262;SDS011;9765;52.354;20.884;2023-02-13T15:24:45;14.30;;;6.93;;
19262;SDS011;9765;52.354;20.884;2023-02-13T15:27:18;13.33;;;6.23;;
